avis per tempestes more information blitzortung!


avis per Pluja more information rain snow radar


Visita la nostra xarxa de llocs de meteo:

Template documentation
and downloads

And another site



Thunderstorms From: 18-09-2018 09:00 Until: 19-09-2018 20:59 warning for: Thunderstorms Level: Yellow info button
Rain From: 18-09-2018 09:00 Until: 19-09-2018 20:59 warning for: Rain Level: Yellow info button

Pagina Historial Weather Underground text

Diari Resum Juliol 7, 2017 Unitats:  Mètric    Imperial   Tant
« Previous Dia
SegĂźent Dia »
Diari Setmana Mensual Anual Personalitzada
  Maxima: Minima: Media:
Temperatura: -17.8 °C -6.4 °C -1.7 °C
Punt de rosada: -17.8 °C -12.6 °C -10.9 °C
Humitat: Humidity % 26 % 38 %
Wind Speed: 0 km/h 0 km/h 13.8 km/h
RĂ fegues de vent: 0 km/h - -
Vent:- - East
Pression baro: 0 hPa 34293.4 hPa -
Precipitacions: 0 mm    
Historical Graphs
 
 
Dades de taula per Juliol 7, 2017
Temps Temperatura Punt de rosada Pression baro Vent Wind Speed RĂ fegues de vent Humitat Rainfall Rate (Hourly)
-17.8 °C -17.8 °C 0 hPa Calm     Humidity % 0 mm
00:04 -4.3 °C -8 °C 34428.8 hPa NNE 8 km/h 8 km/h 66 % 0 mm
00:05 -5.9 °C -9.2 °C 34361.1 hPa NE 2.6 km/h 7.7 km/h 69 % 0 mm
00:15 -6 °C -9.3 °C 34395 hPa Calm     69 % 0 mm
00:25 -6 °C -9.3 °C 34395 hPa Calm     69 % 0 mm
00:35 -6.1 °C -9.3 °C 34395 hPa Calm     69 % 0 mm
00:45 -6.1 °C -9.5 °C 34395 hPa Calm   5.1 km/h 68 % 0 mm
00:55 -6.1 °C -9.6 °C 34395 hPa Calm   2.6 km/h 67 % 0 mm
01:05 -6.1 °C -9.7 °C 34428.8 hPa Calm   2.6 km/h 67 % 0 mm
01:15 -6.2 °C -9.6 °C 34428.8 hPa WNW 2.6 km/h 2.6 km/h 68 % 0 mm
01:25 -6.3 °C -9.7 °C 34428.8 hPa West 2.6 km/h 5.1 km/h 68 % 0 mm
01:35 -6.4 °C -9.8 °C 34428.8 hPa Calm   2.6 km/h 68 % 0 mm
01:45 -6.4 °C -9.8 °C 34462.7 hPa Calm     68 % 0 mm
01:55 -6.4 °C -9.8 °C 34462.7 hPa West 5.1 km/h 5.1 km/h 68 % 0 mm
02:05 -6.4 °C -9.8 °C 34462.7 hPa Calm   5.1 km/h 68 % 0 mm
02:15 -6.2 °C -9.5 °C 34428.8 hPa WSW 2.6 km/h 5.1 km/h 69 % 0 mm
02:25 -6 °C -9.4 °C 34428.8 hPa NE 2.6 km/h 5.1 km/h 68 % 0 mm
02:35 -5.9 °C -9.4 °C 34462.7 hPa NE 2.6 km/h 5.1 km/h 67 % 0 mm
02:45 -5.6 °C -9.3 °C 34462.7 hPa NE 2.6 km/h 7.7 km/h 66 % 0 mm
02:55 -5.4 °C -9.3 °C 34462.7 hPa NE 2.6 km/h 2.6 km/h 65 % 0 mm
03:05 -5 °C -9.1 °C 34462.7 hPa ESE 7.7 km/h 7.7 km/h 63 % 0 mm
03:15 -5 °C -9.4 °C 34428.8 hPa East 7.7 km/h 7.7 km/h 61 % 0 mm
03:25 -5.1 °C -9.4 °C 34428.8 hPa NE 7.7 km/h 7.7 km/h 61 % 0 mm
03:35 -5.1 °C -9.6 °C 34428.8 hPa NNE 12.9 km/h 12.9 km/h 60 % 0 mm
03:45 -5.1 °C -9.8 °C 34428.8 hPa NNE 7.7 km/h 12.9 km/h 59 % 0 mm
03:55 -5 °C -9.7 °C 34428.8 hPa NE 5.1 km/h 7.7 km/h 59 % 0 mm
04:05 -4.6 °C -9.4 °C 34462.7 hPa NNE 7.7 km/h 10.3 km/h 58 % 0 mm
04:15 -4.3 °C -9.5 °C 34428.8 hPa NNE 7.7 km/h 10.3 km/h 56 % 0 mm
04:25 -3.9 °C -9.4 °C 34428.8 hPa ENE 2.6 km/h 10.3 km/h 54 % 0 mm
04:35 -3.5 °C -9.2 °C 34428.8 hPa East 2.6 km/h 7.7 km/h 53 % 0 mm
04:45 -3.1 °C -9 °C 34428.8 hPa ENE 5.1 km/h 10.3 km/h 52 % 0 mm
04:55 -2.8 °C -8.9 °C 34428.8 hPa East 7.7 km/h 10.3 km/h 51 % 0 mm
05:05 -2.6 °C -9.2 °C 34462.7 hPa ESE 7.7 km/h 10.3 km/h 48 % 0 mm
05:15 -2.6 °C -9.3 °C 34428.8 hPa East 7.7 km/h 10.3 km/h 48 % 0 mm
05:25 -2.4 °C -9.4 °C 34428.8 hPa ENE 5.1 km/h 10.3 km/h 46 % 0 mm
05:35 -2.1 °C -9.3 °C 34428.8 hPa ENE 5.1 km/h 7.7 km/h 45 % 0 mm
10:36 -2.1 °C -9.2 °C 34428.8 hPa NNE 9 km/h 9 km/h 46 % 0 mm
10:41 -1.8 °C -9.1 °C 34428.8 hPa NE 9 km/h 9 km/h 45 % 0 mm
10:46 -1.8 °C -9.1 °C 34428.8 hPa East 9 km/h 9 km/h 45 % 0 mm
10:51 -1.6 °C -9.1 °C 34428.8 hPa ENE 6 km/h 6 km/h 44 % 0 mm
10:56 -1.4 °C -8.9 °C 34428.8 hPa NE 9 km/h 9 km/h 44 % 0 mm
11:01 -1.2 °C -8.9 °C 34428.8 hPa ENE 6 km/h 6 km/h 43 % 0 mm
11:02 -1.2 °C -8.9 °C 34428.8 hPa ENE 6 km/h 6 km/h 43 % 0 mm
11:07 -1.1 °C -9.2 °C 34428.8 hPa SSE 15 km/h 15 km/h 41 % 0 mm
11:12 -1.1 °C -9.5 °C 34428.8 hPa ENE 20.9 km/h 20.9 km/h 40 % 0 mm
11:17 -0.9 °C -9.3 °C 34428.8 hPa East 15.6 km/h 15.6 km/h 40 % 0 mm
11:22 -0.8 °C -9.2 °C 34428.8 hPa ENE 15.6 km/h 15.6 km/h 40 % 0 mm
11:27 -0.8 °C -9.2 °C 34395 hPa ESE 15 km/h 15 km/h 40 % 0 mm
11:32 -0.5 °C -9.4 °C 34395 hPa ENE 22.5 km/h 22.5 km/h 38 % 0 mm
11:37 -0.6 °C -9.7 °C 34395 hPa ESE 23.8 km/h 23.8 km/h 37 % 0 mm
11:42 -0.6 °C -9.9 °C 34428.8 hPa ESE 20.9 km/h 20.9 km/h 36 % 0 mm
11:47 -0.3 °C -9.5 °C 34428.8 hPa SE 9.3 km/h 9.8 km/h 37 % 0 mm
11:52 -0.3 °C -9.7 °C 34428.8 hPa East 15.3 km/h 15.3 km/h 36 % 0 mm
11:57 -0.2 °C -9.6 °C 34428.8 hPa NE 15 km/h 15.6 km/h 36 % 0 mm
12:02 -0.1 °C -9.8 °C 34428.8 hPa East 16.6 km/h 16.6 km/h 35 % 0 mm
12:07 -0.3 °C -10.2 °C 34428.8 hPa ESE 17.9 km/h 17.9 km/h 34 % 0 mm
12:12 -0.3 °C -10.2 °C 34428.8 hPa East 23.8 km/h 23.8 km/h 34 % 0 mm
12:17 -0.2 °C -10.6 °C 34428.8 hPa ESE 20.9 km/h 20.9 km/h 32 % 0 mm
12:22 -0.2 °C -10.8 °C 34428.8 hPa ESE 25.9 km/h 25.9 km/h 31 % 0 mm
12:27 0.1 °C -10.4 °C 34395 hPa East 17.9 km/h 17.9 km/h 32 % 0 mm
12:32 0.2 °C -10.2 °C 34395 hPa ESE 20.9 km/h 20.9 km/h 32 % 0 mm
12:37 0.2 °C -10.3 °C 34395 hPa East 20.9 km/h 20.9 km/h 32 % 0 mm
12:42 0.3 °C -10.1 °C 34395 hPa ESE 23.3 km/h 23.3 km/h 32 % 0 mm
12:47 0.4 °C -10.1 °C 34395 hPa ENE 23.8 km/h 23.8 km/h 32 % 0 mm
12:52 0.4 °C -10.4 °C 34395 hPa East 26.9 km/h 26.9 km/h 31 % 0 mm
12:57 0.4 °C -10.6 °C 34395 hPa ENE 32.8 km/h 32.8 km/h 30 % 0 mm
13:02 0.5 °C -10.5 °C 34395 hPa East 28.2 km/h 28.2 km/h 30 % 0 mm
13:07 0.4 °C -10.3 °C 34395 hPa ESE 23.8 km/h 23.8 km/h 31 % 0 mm
13:12 0.4 °C -10.4 °C 34395 hPa SE 20.9 km/h 20.9 km/h 31 % 0 mm
13:17 0.2 °C -10.6 °C 34395 hPa ESE 25.9 km/h 25.9 km/h 31 % 0 mm
13:22 0.4 °C -10.4 °C 34395 hPa SE 24.3 km/h 24.3 km/h 31 % 0 mm
13:27 0.3 °C -10.7 °C 34395 hPa NE 32.8 km/h 32.8 km/h 30 % 0 mm
13:32 0.3 °C -10.7 °C 34395 hPa East 26.9 km/h 26.9 km/h 30 % 0 mm
13:37 0.3 °C -10.4 °C 34395 hPa ESE 11.9 km/h 12.2 km/h 31 % 0 mm
13:42 0.2 °C -10.8 °C 34395 hPa SSE 29.8 km/h 29.8 km/h 30 % 0 mm
13:47 0.3 °C -11 °C 34395 hPa NE 23.8 km/h 23.8 km/h 29 % 0 mm
13:52 0.3 °C -10.9 °C 34395 hPa ESE 16.1 km/h 16.1 km/h 29 % 0 mm
13:57 0.3 °C -10.9 °C 34395 hPa ESE 26.9 km/h 26.9 km/h 29 % 0 mm
14:02 0.4 °C -10.9 °C 34395 hPa SE 17.9 km/h 17.9 km/h 29 % 0 mm
14:07 0.4 °C -11.2 °C 34395 hPa ENE 20.9 km/h 20.9 km/h 28 % 0 mm
14:12 0.6 °C -11.1 °C 34395 hPa ENE 23.8 km/h 23.8 km/h 28 % 0 mm
14:17 0.7 °C -11 °C 34395 hPa ENE 23.8 km/h 23.8 km/h 28 % 0 mm
14:22 0.6 °C -11 °C 34395 hPa East 19.2 km/h 19.2 km/h 28 % 0 mm
14:27 0.7 °C -11 °C 34395 hPa East 29.8 km/h 29.8 km/h 28 % 0 mm
14:32 0.4 °C -11.2 °C 34395 hPa East 20.9 km/h 20.9 km/h 28 % 0 mm
14:37 0.4 °C -11.2 °C 34395 hPa ESE 23.8 km/h 23.8 km/h 28 % 0 mm
14:42 0.4 °C -10.9 °C 34395 hPa SE 11.9 km/h 11.9 km/h 29 % 0 mm
14:47 0.6 °C -11 °C 34395 hPa ESE 8 km/h 8 km/h 28 % 0 mm
14:52 0.1 °C -11.4 °C 34395 hPa SSE 15 km/h 15 km/h 28 % 0 mm
14:57 0.4 °C -10.9 °C 34395 hPa ESE 17.9 km/h 17.9 km/h 29 % 0 mm
15:02 0.6 °C -10.8 °C 34395 hPa ESE 15.6 km/h 15.6 km/h 29 % 0 mm
15:07 0.7 °C -10.7 °C 34395 hPa SSE 17.9 km/h 17.9 km/h 29 % 0 mm
15:12 0.5 °C -10.8 °C 34428.8 hPa SE 23.8 km/h 23.8 km/h 29 % 0 mm
15:17 0.5 °C -10.8 °C 34428.8 hPa ESE 26.9 km/h 26.9 km/h 29 % 0 mm
15:19 0.2 °C -11.1 °C 34428.8 hPa SSE 20.9 km/h 20.9 km/h 29 % 0 mm
15:24 0.1 °C -11.4 °C 34395 hPa East 20.9 km/h 20.9 km/h 28 % 0 mm
15:25 0.1 °C -11.4 °C 34395 hPa SSE 15 km/h 15 km/h 28 % 0 mm
15:30 0.2 °C -11.4 °C 34395 hPa ESE 23.8 km/h 23.8 km/h 28 % 0 mm
15:35 0.1 °C -11.5 °C 34395 hPa NE 15 km/h 15 km/h 28 % 0 mm
15:40 0.1 °C -11.2 °C 34395 hPa ENE 15 km/h 15 km/h 29 % 0 mm
15:45 -0.1 °C -11.3 °C 34395 hPa SSE 26.9 km/h 26.9 km/h 29 % 0 mm
15:50 0.2 °C -11.1 °C 34395 hPa South 9 km/h 9 km/h 29 % 0 mm
15:55 0.2 °C -11.1 °C 34395 hPa SE 11.9 km/h 11.9 km/h 29 % 0 mm
16:00 0.3 °C -11 °C 34395 hPa South 20.9 km/h 20.9 km/h 29 % 0 mm
16:05 0.3 °C -10.9 °C 34395 hPa South 23.8 km/h 23.8 km/h 29 % 0 mm
16:10 0.5 °C -10.8 °C 34395 hPa East 15 km/h 15 km/h 29 % 0 mm
16:15 0.6 °C -11.1 °C 34395 hPa SSE 26.9 km/h 26.9 km/h 28 % 0 mm
16:20 0.3 °C -11.3 °C 34395 hPa SSE 29.8 km/h 29.8 km/h 28 % 0 mm
16:25 0.4 °C -11.2 °C 34395 hPa ESE 23.8 km/h 23.8 km/h 28 % 0 mm
16:30 0.2 °C -11.7 °C 34395 hPa ESE 20.9 km/h 20.9 km/h 27 % 0 mm
16:35 0.2 °C -11.7 °C 34395 hPa SE 16.6 km/h 16.6 km/h 27 % 0 mm
16:40 0.2 °C -12 °C 34395 hPa ESE 32.8 km/h 32.8 km/h 26 % 0 mm
16:45 0.2 °C -12 °C 34395 hPa NE 17.9 km/h 17.9 km/h 26 % 0 mm
16:50 0.1 °C -12.1 °C 34395 hPa ESE 20.9 km/h 20.9 km/h 26 % 0 mm
16:55 0.1 °C -12.1 °C 34395 hPa South 15 km/h 15 km/h 26 % 0 mm
17:00 0.3 °C -11.9 °C 34395 hPa SSE 11.9 km/h 11.9 km/h 26 % 0 mm
17:05 0.3 °C -11.9 °C 34395 hPa SSE 17.9 km/h 17.9 km/h 26 % 0 mm
17:10 0.3 °C -11.9 °C 34395 hPa South 19.6 km/h 19.6 km/h 26 % 0 mm
17:15 0.3 °C -11.9 °C 34395 hPa SE 17.9 km/h 17.9 km/h 26 % 0 mm
17:20 0.3 °C -11.9 °C 34395 hPa ESE 11.9 km/h 11.9 km/h 26 % 0 mm
17:25 0 °C -12.2 °C 34395 hPa South 15 km/h 15 km/h 26 % 0 mm
17:30 -0.1 °C -11.9 °C 34395 hPa South 9 km/h 9 km/h 27 % 0 mm
17:35 -0.1 °C -11.9 °C 34395 hPa East 15.3 km/h 15.3 km/h 27 % 0 mm
17:40 -0.1 °C -11.9 °C 34395 hPa SSE 15 km/h 15 km/h 27 % 0 mm
17:45 -0.1 °C -11.9 °C 34395 hPa ESE 9 km/h 9 km/h 27 % 0 mm
17:50 -0.3 °C -12.1 °C 34395 hPa ENE 15 km/h 15 km/h 27 % 0 mm
17:55 -0.4 °C -12.2 °C 34395 hPa ESE 23.8 km/h 23.8 km/h 27 % 0 mm
18:00 -0.4 °C -11.9 °C 34395 hPa ESE 15 km/h 15 km/h 28 % 0 mm
18:05 -0.3 °C -12.1 °C 34395 hPa SSE 15.6 km/h 15.6 km/h 27 % 0 mm
18:10 -0.2 °C -12.1 °C 34395 hPa ESE 6 km/h 8.5 km/h 27 % 0 mm
18:15 -0.3 °C -12.1 °C 34395 hPa SE 17.9 km/h 17.9 km/h 27 % 0 mm
18:20 -0.2 °C -12.1 °C 34395 hPa SSE 9 km/h 9 km/h 27 % 0 mm
18:25 -0.2 °C -11.7 °C 34395 hPa South 11.9 km/h 11.9 km/h 28 % 0 mm
18:30 -0.3 °C -12.1 °C 34395 hPa SSW 15 km/h 15 km/h 27 % 0 mm
18:35 -0.2 °C -12.1 °C 34395 hPa SE 11.9 km/h 11.9 km/h 27 % 0 mm
18:40 -0.3 °C -12.1 °C 34395 hPa SSE 9 km/h 9 km/h 27 % 0 mm
18:45 -0.3 °C -12.1 °C 34395 hPa East 15 km/h 15 km/h 27 % 0 mm
18:50 -0.4 °C -12.2 °C 34395 hPa ESE 15 km/h 15 km/h 27 % 0 mm
18:55 -0.5 °C -12.3 °C 34395 hPa NE 9 km/h 9 km/h 27 % 0 mm
19:00 -0.4 °C -12.2 °C 34395 hPa ENE 11.9 km/h 11.9 km/h 27 % 0 mm
19:05 -0.5 °C -12.6 °C 34395 hPa East 15 km/h 15 km/h 26 % 0 mm
19:10 -0.6 °C -12.4 °C 34361.1 hPa East 11.9 km/h 11.9 km/h 27 % 0 mm
19:15 -0.6 °C -12.3 °C 34361.1 hPa ENE 9 km/h 9 km/h 27 % 0 mm
19:20 -0.6 °C -12.4 °C 34361.1 hPa NE 15 km/h 15 km/h 27 % 0 mm
19:25 -0.7 °C -12.2 °C 34361.1 hPa NNE 15 km/h 15 km/h 28 % 0 mm
19:30 -0.8 °C -12.2 °C 34361.1 hPa East 11.9 km/h 11.9 km/h 28 % 0 mm
19:35 -0.7 °C -12.2 °C 34361.1 hPa ESE 15 km/h 15 km/h 28 % 0 mm
19:40 -0.8 °C -12.3 °C 34361.1 hPa East 17.9 km/h 17.9 km/h 28 % 0 mm
19:45 -0.9 °C -12.3 °C 34361.1 hPa ESE 15 km/h 15 km/h 28 % 0 mm
19:50 -0.9 °C -12.3 °C 34361.1 hPa ESE 15 km/h 15 km/h 28 % 0 mm
19:55 -1 °C -12.1 °C 34361.1 hPa East 19.6 km/h 19.6 km/h 29 % 0 mm
20:00 -1 °C -12.1 °C 34361.1 hPa ESE 11.9 km/h 11.9 km/h 29 % 0 mm
20:05 -1.1 °C -12.2 °C 34361.1 hPa ESE 15 km/h 15 km/h 29 % 0 mm
20:10 -1.1 °C -12.2 °C 34361.1 hPa ENE 11.9 km/h 11.9 km/h 29 % 0 mm
20:15 -1.2 °C -12.3 °C 34361.1 hPa ESE 15 km/h 15 km/h 29 % 0 mm
20:20 -1.2 °C -12.3 °C 34361.1 hPa ESE 17.9 km/h 17.9 km/h 29 % 0 mm
20:25 -1.3 °C -12.3 °C 34361.1 hPa ESE 15 km/h 15 km/h 29 % 0 mm
20:30 -1.4 °C -12.4 °C 34361.1 hPa ESE 15 km/h 15 km/h 29 % 0 mm
20:35 -1.4 °C -12.2 °C 34361.1 hPa ESE 10.3 km/h 10.3 km/h 30 % 0 mm
20:40 -1.5 °C -12.3 °C 34327.3 hPa SSE 9.3 km/h 9.3 km/h 30 % 0 mm
20:45 -1.6 °C -12.3 °C 34327.3 hPa NE 6 km/h 6 km/h 30 % 0 mm
20:50 -1.7 °C -12.4 °C 34327.3 hPa East 15 km/h 15 km/h 30 % 0 mm
20:55 -1.7 °C -12.4 °C 34327.3 hPa ENE 6 km/h 6 km/h 30 % 0 mm
21:00 -1.7 °C -12.4 °C 34327.3 hPa ESE 11.9 km/h 11.9 km/h 30 % 0 mm
21:05 -1.8 °C -12.2 °C 34327.3 hPa East 6.3 km/h 6.3 km/h 31 % 0 mm
21:10 -1.8 °C -12.3 °C 34327.3 hPa East 11.9 km/h 11.9 km/h 31 % 0 mm
21:15 -1.9 °C -12.3 °C 34327.3 hPa ESE 15 km/h 15 km/h 31 % 0 mm
21:20 -1.9 °C -12.4 °C 34327.3 hPa East 9 km/h 9 km/h 31 % 0 mm
21:25 -2 °C -12.2 °C 34327.3 hPa NE 9 km/h 9 km/h 32 % 0 mm
21:30 -2.1 °C -12 °C 34327.3 hPa East 9.3 km/h 9.3 km/h 33 % 0 mm
21:35 -2.2 °C -11.8 °C 34327.3 hPa ENE 11.9 km/h 11.9 km/h 34 % 0 mm
21:40 -2.3 °C -11.7 °C 34327.3 hPa ENE 11.9 km/h 11.9 km/h 35 % 0 mm
21:45 -2.4 °C -11.5 °C 34327.3 hPa ESE 9 km/h 9 km/h 36 % 0 mm
21:50 -2.6 °C -11.2 °C 34327.3 hPa ENE 11.9 km/h 11.9 km/h 38 % 0 mm
21:55 -2.7 °C -11.1 °C 34327.3 hPa ENE 11.9 km/h 11.9 km/h 39 % 0 mm
22:00 -2.7 °C -10.7 °C 34327.3 hPa East 9.3 km/h 9.3 km/h 41 % 0 mm
22:05 -2.8 °C -10.6 °C 34327.3 hPa ENE 9 km/h 9 km/h 42 % 0 mm
22:10 -2.9 °C -10.1 °C 34293.4 hPa NE 9 km/h 9 km/h 45 % 0 mm
22:15 -3 °C -10.2 °C 34293.4 hPa North 6 km/h 6 km/h 45 % 0 mm
22:20 -3.1 °C -10.2 °C 34293.4 hPa NE 9 km/h 9 km/h 45 % 0 mm
22:25 -3.1 °C -10.1 °C 34327.3 hPa NNE 9 km/h 9 km/h 46 % 0 mm
22:30 -3.2 °C -10.2 °C 34327.3 hPa ENE 9 km/h 9 km/h 46 % 0 mm
22:35 -3.2 °C -10 °C 34327.3 hPa NNE 9 km/h 9 km/h 47 % 0 mm
22:40 -3.3 °C -10.1 °C 34327.3 hPa NNE 15 km/h 15 km/h 47 % 0 mm
22:45 -3.4 °C -9.9 °C 34327.3 hPa NNE 15 km/h 15 km/h 48 % 0 mm
22:50 -3.4 °C -10.1 °C 34327.3 hPa NNW 15 km/h 15 km/h 48 % 0 mm
22:55 -3.6 °C -10.1 °C 34361.1 hPa NNE 15 km/h 15 km/h 48 % 0 mm
23:00 -3.6 °C -10.1 °C 34361.1 hPa NE 9 km/h 9 km/h 48 % 0 mm
23:05 -3.6 °C -10.5 °C 34361.1 hPa ENE 15 km/h 15 km/h 46 % 0 mm
23:10 -3.6 °C -10.7 °C 34327.3 hPa NNE 16.1 km/h 16.1 km/h 45 % 0 mm
23:15 -3.6 °C -10.9 °C 34327.3 hPa North 15 km/h 15 km/h 44 % 0 mm
23:20 -3.7 °C -11.2 °C 34327.3 hPa ESE 11.9 km/h 11.9 km/h 43 % 0 mm
23:25 -3.6 °C -11.3 °C 34293.4 hPa East 11.9 km/h 11.9 km/h 42 % 0 mm
23:30 -3.7 °C -11.3 °C 34293.4 hPa ENE 15 km/h 15 km/h 42 % 0 mm
23:35 -3.7 °C -11.3 °C 34293.4 hPa ESE 17.9 km/h 17.9 km/h 42 % 0 mm
23:40 -3.7 °C -11.3 °C 34327.3 hPa East 15 km/h 15 km/h 42 % 0 mm
23:45 -3.7 °C -11.4 °C 34327.3 hPa ENE 8 km/h 8 km/h 42 % 0 mm
23:50 -3.7 °C -11.4 °C 34327.3 hPa ENE 6 km/h 6 km/h 42 % 0 mm
23:55 -3.7 °C -11.4 °C 34327.3 hPa East 6 km/h 6 km/h 42 % 0 mm
Meteo Sesrovires
Elogis d' Weather Underground - 1.5 mb

Guio original per  Jim McMurry - jmcmurry@mwt.net Adaptat per a la plantilla per  Wim van der Kuil - Leuven-Template.eu

Trobareu la nostra informacio del temps tambe a:

Weather Underground

AWEKAS